Time;durP1;ratioP1;P1;durP2;ratioP2;P2;SDS_P1;SDS_P2;PMS_P1;PMS_P2;Temp;Humidity;BMP_temperature;BMP_pressure;BME280_temperature;BME280_humidity;BME280_pressure;Samples;Min_cycle;Max_cycle;Signal;HPM_P1;HPM_P2
2023/05/07 00:00:17;;;;;;;2.90;2.50;;;14.70;99.90;;;;;;5053343;28;20466;-72
2023/05/07 00:03:03;;;;;;;4.80;2.97;;;14.60;99.90;;;;;;5055603;28;20421;-72
2023/05/07 00:05:48;;;;;;;3.43;2.77;;;14.60;99.90;;;;;;5059209;28;20833;-70
2023/05/07 00:08:35;;;;;;;5.57;3.33;;;14.50;99.90;;;;;;5057314;28;20503;-73
2023/05/07 00:11:20;;;;;;;6.47;2.80;;;14.60;99.90;;;;;;5058181;28;20490;-70
2023/05/07 00:14:06;;;;;;;4.23;3.10;;;14.60;99.90;;;;;;5049246;28;20459;-72
2023/05/07 00:16:52;;;;;;;3.50;3.10;;;14.40;99.90;;;;;;5048445;28;20465;-70
2023/05/07 00:19:37;;;;;;;7.60;2.97;;;14.40;99.90;;;;;;5048452;28;20523;-70
2023/05/07 00:22:23;;;;;;;4.80;3.10;;;14.40;99.90;;;;;;5041691;28;20438;-75
2023/05/07 00:25:11;;;;;;;3.93;2.70;;;14.40;99.90;;;;;;5049015;28;20997;-70
2023/05/07 00:27:57;;;;;;;7.13;3.10;;;14.30;99.90;;;;;;5047533;28;21007;-70
2023/05/07 00:30:42;;;;;;;5.73;2.93;;;14.30;99.90;;;;;;5048982;28;20449;-70
2023/05/07 00:33:28;;;;;;;4.33;3.00;;;14.40;99.90;;;;;;5041059;28;20416;-70
2023/05/07 00:36:13;;;;;;;4.30;3.07;;;14.30;99.90;;;;;;5037238;28;20494;-72
2023/05/07 00:39:01;;;;;;;11.33;3.20;;;14.20;99.90;;;;;;5047012;28;20420;-73
2023/05/07 00:41:48;;;;;;;3.47;2.90;;;14.20;99.90;;;;;;5048971;28;20848;-74
2023/05/07 00:44:34;;;;;;;10.40;2.83;;;14.20;99.90;;;;;;5050454;28;20467;-71
2023/05/07 00:47:20;;;;;;;3.23;2.50;;;14.10;99.90;;;;;;5045861;28;20905;-71
2023/05/07 00:50:07;;;;;;;4.83;3.10;;;14.00;99.90;;;;;;5051621;28;20457;-73
2023/05/07 00:52:52;;;;;;;7.73;2.70;;;14.10;99.90;;;;;;5049038;28;20463;-71
2023/05/07 00:55:38;;;;;;;4.27;2.80;;;14.10;99.90;;;;;;5054201;28;20486;-73
2023/05/07 00:58:25;;;;;;;7.70;2.30;;;14.10;99.90;;;;;;5061965;28;20482;-70
2023/05/07 01:01:10;;;;;;;5.07;2.60;;;14.00;99.90;;;;;;5058647;28;20406;-71
2023/05/07 01:03:56;;;;;;;7.70;2.70;;;13.90;99.90;;;;;;5056776;28;20688;-70
2023/05/07 01:06:41;;;;;;;7.17;2.90;;;13.90;99.90;;;;;;5055552;28;20418;-70
2023/05/07 01:09:29;;;;;;;2.97;2.63;;;14.00;99.90;;;;;;5052864;28;20456;-71
2023/05/07 01:12:14;;;;;;;6.50;2.53;;;14.00;99.90;;;;;;5051127;28;20508;-73
2023/05/07 01:15:02;;;;;;;6.30;2.63;;;13.90;99.90;;;;;;5055270;28;20557;-71
2023/05/07 01:17:47;;;;;;;5.50;2.57;;;13.80;99.90;;;;;;5055834;28;20472;-70
2023/05/07 01:20:33;;;;;;;3.57;2.57;;;13.80;99.90;;;;;;5046693;28;20441;-73
2023/05/07 01:23:20;;;;;;;2.80;2.03;;;13.70;99.90;;;;;;5045684;28;20789;-73
2023/05/07 01:26:05;;;;;;;3.93;2.40;;;13.80;99.90;;;;;;5047698;28;20451;-70
2023/05/07 01:28:52;;;;;;;2.73;2.37;;;13.80;99.90;;;;;;5050126;28;20533;-70
2023/05/07 01:31:40;;;;;;;3.43;2.80;;;13.70;99.90;;;;;;5040879;28;20500;-71
2023/05/07 01:34:27;;;;;;;4.20;2.20;;;13.60;99.90;;;;;;5045408;28;20831;-71
2023/05/07 01:37:12;;;;;;;4.97;2.70;;;13.50;99.90;;;;;;5046849;28;20588;-70
2023/05/07 01:39:59;;;;;;;3.50;2.80;;;13.50;99.90;;;;;;5043633;28;20542;-70
2023/05/07 01:42:46;;;;;;;7.73;2.77;;;13.50;99.90;;;;;;5045618;28;20943;-75
2023/05/07 01:45:33;;;;;;;12.53;2.93;;;13.50;99.90;;;;;;5045241;28;20487;-72
2023/05/07 01:48:19;;;;;;;3.77;2.67;;;13.50;99.90;;;;;;5047049;28;20421;-71
2023/05/07 01:51:05;;;;;;;6.23;2.10;;;13.50;99.90;;;;;;5046411;28;20549;-71
2023/05/07 01:53:51;;;;;;;5.53;2.80;;;13.60;99.90;;;;;;5044877;28;20596;-71
2023/05/07 01:56:37;;;;;;;3.43;2.80;;;13.60;99.90;;;;;;5051469;28;20511;-72
2023/05/07 01:59:23;;;;;;;4.80;2.50;;;13.50;99.90;;;;;;5051378;28;20522;-71
2023/05/07 02:02:08;;;;;;;2.87;2.40;;;13.50;99.90;;;;;;5044378;28;20759;-71
2023/05/07 02:04:54;;;;;;;3.47;2.60;;;13.50;99.90;;;;;;5061161;28;20421;-71
2023/05/07 02:07:39;;;;;;;4.40;2.43;;;13.40;99.90;;;;;;5049348;28;20407;-71
2023/05/07 02:10:25;;;;;;;8.07;3.27;;;13.40;99.90;;;;;;5052122;28;20583;-71
2023/05/07 02:13:12;;;;;;;13.83;2.87;;;13.40;99.90;;;;;;5047969;28;20543;-72
2023/05/07 02:15:57;;;;;;;5.90;2.60;;;13.30;99.90;;;;;;5056635;28;20438;-71
2023/05/07 02:18:43;;;;;;;8.53;2.43;;;13.40;99.90;;;;;;5060911;28;20420;-71
2023/05/07 02:21:28;;;;;;;4.10;2.83;;;13.40;99.90;;;;;;5041147;28;20462;-71
2023/05/07 02:24:15;;;;;;;6.30;2.87;;;13.40;99.90;;;;;;5050848;28;20587;-70
2023/05/07 02:27:01;;;;;;;3.33;2.47;;;13.40;99.90;;;;;;5045892;28;20450;-72
2023/05/07 02:29:47;;;;;;;3.10;2.47;;;13.40;99.90;;;;;;5045160;28;20448;-70
2023/05/07 02:32:33;;;;;;;7.13;2.70;;;13.40;99.90;;;;;;5055575;28;21109;-71
2023/05/07 02:35:18;;;;;;;9.80;2.70;;;13.50;99.90;;;;;;5054595;28;20474;-71
2023/05/07 02:38:04;;;;;;;3.50;2.13;;;13.40;99.90;;;;;;5052040;28;20528;-72
2023/05/07 02:40:49;;;;;;;5.97;3.40;;;13.40;99.90;;;;;;5040089;28;20487;-70
2023/05/07 02:43:35;;;;;;;5.57;2.93;;;13.40;99.90;;;;;;5040991;28;20432;-72
2023/05/07 02:46:22;;;;;;;4.70;2.70;;;13.40;99.90;;;;;;5048709;28;20954;-71
2023/05/07 02:49:07;;;;;;;3.80;2.60;;;13.30;99.90;;;;;;5044876;28;20933;-71
2023/05/07 02:51:53;;;;;;;3.40;2.53;;;13.30;99.90;;;;;;5039835;28;20470;-72
2023/05/07 02:54:38;;;;;;;8.70;2.70;;;13.30;99.90;;;;;;5058768;28;20461;-72
2023/05/07 02:57:24;;;;;;;4.00;2.20;;;13.40;99.90;;;;;;5049658;28;20467;-70
2023/05/07 03:00:14;;;;;;;3.10;2.10;;;13.30;99.90;;;;;;5060142;28;20417;-70
2023/05/07 03:03:01;;;;;;;5.30;2.30;;;13.30;99.90;;;;;;5058975;28;20398;-70
2023/05/07 03:05:47;;;;;;;4.07;2.70;;;13.30;99.90;;;;;;5061074;28;20456;-71
2023/05/07 03:08:32;;;;;;;4.07;2.07;;;13.30;99.90;;;;;;5061062;28;20395;-74
2023/05/07 03:11:18;;;;;;;3.67;2.57;;;13.20;99.90;;;;;;5059986;28;20432;-71
2023/05/07 03:14:03;;;;;;;4.23;2.60;;;13.20;99.90;;;;;;5058898;28;20518;-71
2023/05/07 03:16:50;;;;;;;3.30;2.97;;;13.30;99.90;;;;;;5095177;22;20551;-72
2023/05/07 03:19:37;;;;;;;10.70;3.17;;;13.30;99.90;;;;;;5070581;28;20424;-75
2023/05/07 03:22:22;;;;;;;3.60;2.27;;;13.40;99.90;;;;;;5075158;28;20908;-75
2023/05/07 03:25:09;;;;;;;3.80;2.50;;;13.40;99.90;;;;;;5077395;28;20422;-75
2023/05/07 03:27:54;;;;;;;3.60;2.50;;;13.30;99.90;;;;;;5077236;28;20420;-75
2023/05/07 03:30:40;;;;;;;4.27;2.90;;;13.20;99.90;;;;;;5075230;28;20440;-75
2023/05/07 03:33:27;;;;;;;3.90;2.30;;;13.20;99.90;;;;;;5073140;28;20447;-74
2023/05/07 03:36:13;;;;;;;4.60;2.77;;;13.20;99.90;;;;;;5077592;28;20829;-75
2023/05/07 03:38:59;;;;;;;4.20;2.67;;;13.20;99.90;;;;;;5067827;28;20812;-75
2023/05/07 03:41:44;;;;;;;3.20;2.43;;;13.10;99.90;;;;;;5073248;28;20521;-74
2023/05/07 03:44:30;;;;;;;3.50;2.37;;;13.20;99.90;;;;;;5075298;28;20447;-75
2023/05/07 03:47:15;;;;;;;5.07;2.40;;;13.20;99.90;;;;;;5068234;28;20465;-75
2023/05/07 03:50:01;;;;;;;2.97;2.30;;;13.10;99.90;;;;;;5068346;28;20425;-75
2023/05/07 03:52:48;;;;;;;3.10;2.50;;;13.00;99.90;;;;;;5066638;28;20434;-75
2023/05/07 03:55:33;;;;;;;3.07;2.77;;;13.00;99.90;;;;;;5071802;28;20940;-75
2023/05/07 03:58:19;;;;;;;5.40;2.87;;;13.00;99.90;;;;;;5072111;28;20421;-74
2023/05/07 04:01:04;;;;;;;4.57;2.70;;;13.00;99.90;;;;;;5071002;28;20524;-75
2023/05/07 04:03:50;;;;;;;3.37;2.30;;;13.00;99.90;;;;;;5067288;28;20418;-74
2023/05/07 04:06:35;;;;;;;2.97;2.33;;;12.90;99.90;;;;;;5069234;28;20815;-74
2023/05/07 04:09:22;;;;;;;4.80;2.63;;;13.00;99.90;;;;;;5077157;28;20420;-75
2023/05/07 04:12:07;;;;;;;4.07;2.73;;;12.90;99.90;;;;;;5079412;28;20443;-74
2023/05/07 04:14:53;;;;;;;3.10;2.20;;;12.80;99.90;;;;;;5071348;28;20558;-75
2023/05/07 04:17:39;;;;;;;6.57;2.70;;;12.80;99.90;;;;;;5079933;28;20788;-75
2023/05/07 04:20:25;;;;;;;4.33;2.60;;;12.80;99.90;;;;;;5066151;28;20444;-75
2023/05/07 04:23:10;;;;;;;3.67;2.27;;;12.80;99.90;;;;;;5069488;28;20956;-75
2023/05/07 04:25:57;;;;;;;3.33;2.30;;;12.80;99.90;;;;;;5065226;28;20575;-75
2023/05/07 04:28:42;;;;;;;2.63;2.23;;;12.80;99.90;;;;;;5058848;28;20459;-75
2023/05/07 04:31:28;;;;;;;3.73;2.80;;;12.80;99.90;;;;;;5068740;28;20414;-75
2023/05/07 04:34:14;;;;;;;6.50;2.50;;;12.80;99.90;;;;;;5075824;28;20846;-75
2023/05/07 04:37:00;;;;;;;4.20;2.77;;;12.90;99.90;;;;;;5070001;28;20841;-75
2023/05/07 04:39:45;;;;;;;4.43;2.70;;;12.90;99.90;;;;;;5065387;28;20929;-74
2023/05/07 04:42:32;;;;;;;7.60;3.20;;;12.90;99.90;;;;;;5066884;28;20485;-74
2023/05/07 04:45:17;;;;;;;3.60;2.63;;;13.00;99.90;;;;;;5068777;28;20425;-75
2023/05/07 04:48:03;;;;;;;5.20;3.10;;;13.10;99.90;;;;;;5065060;28;20627;-75
2023/05/07 04:50:49;;;;;;;3.10;2.40;;;13.10;99.90;;;;;;5055715;28;20506;-75
2023/05/07 04:53:34;;;;;;;3.27;2.30;;;13.20;99.90;;;;;;5070203;28;20517;-75
2023/05/07 04:56:20;;;;;;;4.30;2.57;;;13.20;99.90;;;;;;5073594;28;20519;-72
2023/05/07 04:59:06;;;;;;;3.03;2.67;;;13.20;99.90;;;;;;5063621;28;20484;-73
2023/05/07 05:01:52;;;;;;;4.20;2.50;;;13.30;99.90;;;;;;5070249;28;20403;-75
2023/05/07 05:04:38;;;;;;;4.07;2.40;;;13.30;99.90;;;;;;5071575;28;20502;-75
2023/05/07 05:07:22;;;;;;;4.80;2.70;;;13.40;99.90;;;;;;5071175;28;20537;-75
2023/05/07 05:10:08;;;;;;;3.97;2.67;;;13.40;99.90;;;;;;5057961;28;20441;-75
2023/05/07 05:12:54;;;;;;;4.10;3.10;;;13.50;99.90;;;;;;5070467;28;20846;-75
2023/05/07 05:15:40;;;;;;;3.37;2.53;;;13.50;99.90;;;;;;5067882;28;20458;-75
2023/05/07 05:18:26;;;;;;;3.47;2.43;;;13.60;99.90;;;;;;5065957;28;20561;-75
2023/05/07 05:21:11;;;;;;;3.00;2.17;;;13.60;99.90;;;;;;5072312;28;20915;-75
2023/05/07 05:23:57;;;;;;;5.37;2.40;;;13.70;99.90;;;;;;5067757;28;20987;-72
2023/05/07 05:26:42;;;;;;;4.73;2.87;;;13.70;99.90;;;;;;5068886;28;20439;-72
2023/05/07 05:29:28;;;;;;;4.47;2.80;;;13.80;99.90;;;;;;5062867;28;20458;-75
2023/05/07 05:32:15;;;;;;;4.13;2.77;;;13.90;99.90;;;;;;5078579;28;20422;-75
2023/05/07 05:35:00;;;;;;;4.73;2.47;;;13.90;99.90;;;;;;5066429;28;20427;-75
2023/05/07 05:37:46;;;;;;;4.20;3.27;;;14.10;99.90;;;;;;5064468;28;22024;-75
2023/05/07 05:40:32;;;;;;;3.20;2.47;;;14.10;99.90;;;;;;5076223;28;20416;-75
2023/05/07 05:43:17;;;;;;;8.00;3.10;;;14.20;99.90;;;;;;5077769;28;20444;-72
2023/05/07 05:46:04;;;;;;;3.50;2.30;;;14.30;99.90;;;;;;5061957;28;20493;-72
2023/05/07 05:48:50;;;;;;;3.70;3.10;;;14.40;99.90;;;;;;5076181;28;20466;-73
2023/05/07 05:51:36;;;;;;;4.30;2.60;;;14.50;99.90;;;;;;5072406;28;20419;-72
2023/05/07 05:54:21;;;;;;;3.70;2.77;;;14.60;99.90;;;;;;5076704;28;21021;-73
2023/05/07 05:57:07;;;;;;;4.63;2.53;;;14.60;99.90;;;;;;5060621;28;20582;-73
2023/05/07 05:59:52;;;;;;;3.03;2.63;;;14.80;99.90;;;;;;5068462;28;20813;-75
2023/05/07 06:02:38;;;;;;;3.33;2.47;;;14.80;99.90;;;;;;5072577;28;20774;-75
2023/05/07 06:05:25;;;;;;;3.07;2.60;;;14.80;99.90;;;;;;5071310;28;20456;-72
2023/05/07 06:08:10;;;;;;;3.70;2.20;;;15.00;99.90;;;;;;5064998;28;21913;-72
2023/05/07 06:10:56;;;;;;;5.87;2.83;;;15.10;99.90;;;;;;5075167;28;20553;-72
2023/05/07 06:13:42;;;;;;;3.07;2.47;;;15.10;99.90;;;;;;5086684;28;20482;-73
2023/05/07 06:16:27;;;;;;;3.60;2.23;;;15.10;99.90;;;;;;5077337;28;20565;-73
2023/05/07 06:19:13;;;;;;;3.57;2.90;;;15.20;99.90;;;;;;5074543;28;20444;-72
2023/05/07 06:22:01;;;;;;;2.80;2.00;;;15.30;99.90;;;;;;5072917;28;20834;-73
2023/05/07 06:24:46;;;;;;;2.97;2.30;;;15.40;99.90;;;;;;5074656;28;20857;-73
2023/05/07 06:27:32;;;;;;;2.50;2.27;;;15.50;99.90;;;;;;5071925;28;21020;-72
2023/05/07 06:30:17;;;;;;;5.00;2.47;;;15.60;99.90;;;;;;5072288;28;20449;-73
2023/05/07 06:33:02;;;;;;;2.90;2.43;;;15.70;99.90;;;;;;5075582;28;20446;-72
2023/05/07 06:35:48;;;;;;;6.00;2.13;;;15.70;99.90;;;;;;5074688;28;20484;-73
2023/05/07 06:38:35;;;;;;;3.07;2.30;;;15.80;99.90;;;;;;5078335;28;20508;-73
2023/05/07 06:41:21;;;;;;;3.40;2.20;;;15.90;99.90;;;;;;5075177;28;20482;-73
2023/05/07 06:44:06;;;;;;;2.60;2.10;;;16.00;99.90;;;;;;5075967;28;20531;-73
2023/05/07 06:46:52;;;;;;;2.67;1.90;;;16.00;99.90;;;;;;5072862;28;20829;-73
2023/05/07 06:49:37;;;;;;;2.70;1.93;;;16.10;99.90;;;;;;5073910;28;20427;-73
2023/05/07 06:52:23;;;;;;;2.80;2.13;;;16.20;99.90;;;;;;5069801;28;20420;-73
2023/05/07 06:55:11;;;;;;;3.17;1.90;;;16.30;99.90;;;;;;5072720;28;20467;-73
2023/05/07 06:57:57;;;;;;;2.87;2.43;;;16.30;99.90;;;;;;5065965;28;20654;-73
2023/05/07 07:00:43;;;;;;;3.23;2.17;;;16.40;99.90;;;;;;5066210;28;20499;-73
2023/05/07 07:03:28;;;;;;;3.40;2.33;;;16.50;99.90;;;;;;5063828;28;20424;-73
2023/05/07 07:06:14;;;;;;;4.93;2.80;;;16.60;99.90;;;;;;5061149;28;20542;-73
2023/05/07 07:09:00;;;;;;;5.60;2.27;;;16.70;99.90;;;;;;5067437;28;20420;-73
2023/05/07 07:11:47;;;;;;;10.00;2.80;;;16.90;99.90;;;;;;5069416;28;20564;-73
2023/05/07 07:14:32;;;;;;;4.13;2.80;;;17.00;99.90;;;;;;5069369;28;20535;-73
2023/05/07 07:17:18;;;;;;;6.80;2.40;;;17.10;99.90;;;;;;5070877;28;21030;-73
2023/05/07 07:20:04;;;;;;;3.60;2.47;;;17.20;99.90;;;;;;5076504;28;20423;-72
2023/05/07 07:22:49;;;;;;;6.90;2.33;;;17.30;99.90;;;;;;5078799;28;20977;-72
2023/05/07 07:25:35;;;;;;;2.20;1.67;;;17.50;99.90;;;;;;5073143;28;20462;-72
2023/05/07 07:28:23;;;;;;;3.87;1.87;;;17.60;99.90;;;;;;5070553;28;20452;-72
2023/05/07 07:31:08;;;;;;;2.90;1.73;;;17.70;99.90;;;;;;5078456;28;20440;-73
2023/05/07 07:33:54;;;;;;;3.77;1.93;;;17.70;99.90;;;;;;5074058;28;20456;-72
2023/05/07 07:36:40;;;;;;;4.13;2.20;;;17.80;99.90;;;;;;5072683;28;20460;-73
2023/05/07 07:39:25;;;;;;;3.90;2.47;;;17.90;99.90;;;;;;5075916;28;20435;-72
2023/05/07 07:42:11;;;;;;;4.60;2.50;;;17.90;99.90;;;;;;5068069;28;20463;-72
2023/05/07 07:44:57;;;;;;;8.23;2.10;;;18.00;99.90;;;;;;5064365;28;20458;-72
2023/05/07 07:47:43;;;;;;;2.87;2.03;;;18.10;99.90;;;;;;5066255;28;20486;-72
2023/05/07 07:50:28;;;;;;;3.80;2.20;;;18.20;99.90;;;;;;5074388;28;20474;-73
2023/05/07 07:53:14;;;;;;;3.17;1.90;;;18.30;99.90;;;;;;5071341;28;20576;-72
2023/05/07 07:56:00;;;;;;;2.70;1.83;;;18.50;99.90;;;;;;5064932;28;20474;-73
2023/05/07 07:58:45;;;;;;;4.10;2.27;;;18.60;99.90;;;;;;5073738;28;20524;-72
2023/05/07 08:01:32;;;;;;;4.40;2.30;;;18.70;99.90;;;;;;5066203;28;20440;-72
2023/05/07 08:04:18;;;;;;;2.90;1.90;;;18.90;99.90;;;;;;5072380;28;20414;-73
2023/05/07 08:07:03;;;;;;;4.33;2.17;;;18.90;99.90;;;;;;5061201;28;20544;-73
2023/05/07 08:09:49;;;;;;;3.53;1.80;;;19.00;99.90;;;;;;5073387;28;21038;-72
2023/05/07 08:12:34;;;;;;;3.70;2.80;;;19.00;99.90;;;;;;5072244;28;20586;-72
2023/05/07 08:15:20;;;;;;;5.53;2.70;;;19.00;99.90;;;;;;5066368;28;20481;-72
2023/05/07 08:18:07;;;;;;;4.00;2.23;;;19.00;99.90;;;;;;5073763;28;20416;-73
2023/05/07 08:20:52;;;;;;;3.20;2.27;;;19.00;99.90;;;;;;5080886;28;21036;-72
2023/05/07 08:23:38;;;;;;;3.10;2.00;;;19.00;99.90;;;;;;5072790;28;20498;-73
2023/05/07 08:26:23;;;;;;;3.67;2.37;;;19.00;99.90;;;;;;5062451;28;20429;-73
2023/05/07 08:29:09;;;;;;;5.00;2.10;;;19.00;99.90;;;;;;5073564;28;20446;-73
2023/05/07 08:31:54;;;;;;;5.53;2.10;;;18.90;99.90;;;;;;5074787;28;20456;-73
2023/05/07 08:34:41;;;;;;;5.00;2.40;;;18.90;99.90;;;;;;5062126;28;20564;-73
2023/05/07 08:37:27;;;;;;;3.17;1.70;;;18.90;99.90;;;;;;5062831;28;20424;-73
2023/05/07 08:40:13;;;;;;;4.37;2.43;;;18.90;99.90;;;;;;5070880;28;20412;-73
2023/05/07 08:42:59;;;;;;;3.53;2.17;;;18.90;99.90;;;;;;5063945;28;20443;-73
2023/05/07 08:45:46;;;;;;;8.70;2.43;;;18.90;99.90;;;;;;5065945;28;20470;-73
2023/05/07 08:48:33;;;;;;;3.50;2.00;;;18.90;99.90;;;;;;5058826;28;21022;-73
2023/05/07 08:51:21;;;;;;;3.80;1.90;;;18.90;99.90;;;;;;5072634;28;20469;-73
2023/05/07 08:54:08;;;;;;;4.10;2.07;;;18.90;99.90;;;;;;5074682;28;20551;-73
2023/05/07 08:56:53;;;;;;;2.80;2.20;;;19.00;99.90;;;;;;5065558;28;20521;-72
2023/05/07 08:59:39;;;;;;;6.37;2.43;;;19.00;99.90;;;;;;5063493;28;20932;-72
2023/05/07 09:02:24;;;;;;;2.83;2.07;;;19.00;99.90;;;;;;5065692;28;21053;-72
2023/05/07 09:05:10;;;;;;;6.43;2.70;;;19.00;99.90;;;;;;5065230;28;20796;-72
2023/05/07 09:08:00;;;;;;;4.50;2.70;;;19.00;99.90;;;;;;5068443;28;20955;-73
2023/05/07 09:10:45;;;;;;;3.77;2.40;;;19.10;99.90;;;;;;5071298;28;20416;-72
2023/05/07 09:13:31;;;;;;;4.67;2.57;;;19.10;99.90;;;;;;5080213;28;20568;-72
2023/05/07 09:16:16;;;;;;;6.60;2.37;;;19.20;99.90;;;;;;5066739;28;20470;-75
2023/05/07 09:19:02;;;;;;;3.17;2.67;;;19.10;99.90;;;;;;5067502;28;20425;-73
2023/05/07 09:21:47;;;;;;;3.10;2.40;;;19.20;99.90;;;;;;5057416;28;20910;-75
2023/05/07 09:24:37;;;;;;;3.70;2.40;;;19.30;99.90;;;;;;5061500;28;20916;-75
2023/05/07 09:27:22;;;;;;;3.63;2.23;;;19.50;99.90;;;;;;5063675;28;20491;-75
2023/05/07 09:30:09;;;;;;;4.10;2.07;;;19.70;99.90;;;;;;5067829;28;20636;-76
2023/05/07 09:32:55;;;;;;;6.47;2.80;;;19.80;99.90;;;;;;5071536;28;20580;-75
2023/05/07 09:35:40;;;;;;;5.30;2.47;;;19.90;99.90;;;;;;5073268;28;20891;-76
2023/05/07 09:38:28;;;;;;;3.10;2.50;;;20.10;99.90;;;;;;5064936;28;20451;-76
2023/05/07 09:41:15;;;;;;;3.40;2.30;;;20.30;99.90;;;;;;5069907;28;20464;-76
2023/05/07 09:44:01;;;;;;;6.10;2.30;;;20.40;99.90;;;;;;5064136;28;20570;-76
2023/05/07 09:46:52;;;;;;;4.53;2.60;;;20.50;99.90;;;;;;5064905;28;20536;-73
2023/05/07 09:49:42;;;;;;;4.10;2.37;;;20.70;99.90;;;;;;5072594;28;20447;-76
2023/05/07 09:52:33;;;;;;;4.00;2.77;;;20.70;99.90;;;;;;5063786;28;20509;-76
2023/05/07 09:55:19;;;;;;;3.33;2.43;;;20.70;99.90;;;;;;5067703;28;20479;-76
2023/05/07 09:58:07;;;;;;;5.97;2.30;;;20.60;99.90;;;;;;5064319;28;20451;-75
2023/05/07 10:00:53;;;;;;;2.90;2.20;;;20.50;99.90;;;;;;5073361;28;20527;-72
2023/05/07 10:03:41;;;;;;;3.83;2.53;;;20.60;99.90;;;;;;5065838;28;21005;-75
2023/05/07 10:06:26;;;;;;;3.70;2.80;;;20.50;99.90;;;;;;5066218;28;20532;-74
2023/05/07 10:09:12;;;;;;;3.97;2.30;;;20.50;99.90;;;;;;5068123;28;20817;-76
2023/05/07 10:11:59;;;;;;;3.60;2.43;;;20.60;99.90;;;;;;5074705;28;20489;-75
2023/05/07 10:14:48;;;;;;;3.53;2.67;;;20.60;99.90;;;;;;5065011;28;20511;-76
2023/05/07 10:17:33;;;;;;;4.70;2.60;;;20.70;99.90;;;;;;5059756;28;20443;-75
2023/05/07 10:20:19;;;;;;;3.07;2.77;;;20.70;99.90;;;;;;5066736;28;20446;-75
2023/05/07 10:23:09;;;;;;;12.47;3.27;;;20.80;99.90;;;;;;5065847;28;20454;-72
2023/05/07 10:25:56;;;;;;;4.63;2.90;;;20.90;99.90;;;;;;5068700;28;20462;-72
2023/05/07 10:28:46;;;;;;;3.40;2.60;;;21.00;99.90;;;;;;5060288;28;20474;-75
2023/05/07 10:31:48;;;;;;;2.73;2.27;;;21.10;99.90;;;;;;5072557;28;20806;-75
2023/05/07 10:34:39;;;;;;;4.07;2.50;;;21.30;99.90;;;;;;5067850;28;20544;-76
2023/05/07 10:37:25;;;;;;;4.73;2.63;;;21.60;99.90;;;;;;5065970;28;21030;-75
2023/05/07 10:40:12;;;;;;;3.57;2.50;;;21.80;96.30;;;;;;5065943;28;20460;-76
2023/05/07 10:42:59;;;;;;;3.17;2.30;;;22.00;98.20;;;;;;5075439;28;20501;-75
2023/05/07 10:45:44;;;;;;;3.20;2.27;;;22.20;94.50;;;;;;5063556;28;20542;-75
2023/05/07 10:48:32;;;;;;;3.30;2.57;;;22.30;91.70;;;;;;5068737;28;20505;-76
2023/05/07 10:51:22;;;;;;;4.30;2.37;;;22.50;90.00;;;;;;5073140;28;20592;-75
2023/05/07 10:54:21;;;;;;;3.13;1.97;;;22.60;89.10;;;;;;5067899;28;20458;-75
2023/05/07 10:57:33;;;;;;;2.87;2.20;;;22.90;83.40;;;;;;5071096;28;20827;-74
2023/05/07 11:00:44;;;;;;;5.47;2.30;;;23.10;73.70;;;;;;5071432;28;20447;-75
2023/05/07 11:03:31;;;;;;;2.93;1.93;;;23.30;75.70;;;;;;5083405;28;20522;-75
2023/05/07 11:06:17;;;;;;;4.23;2.10;;;23.40;72.60;;;;;;5071030;28;20467;-75
2023/05/07 11:09:03;;;;;;;2.93;2.20;;;23.20;62.40;;;;;;5078473;28;20446;-75
2023/05/07 11:11:51;;;;;;;3.57;2.50;;;23.10;63.80;;;;;;5064887;28;20438;-72
2023/05/07 11:14:45;;;;;;;3.10;1.73;;;22.80;63.20;;;;;;5063129;28;21163;-73
2023/05/07 11:17:31;;;;;;;3.40;2.30;;;22.70;64.60;;;;;;5076117;28;20493;-72
2023/05/07 11:20:18;;;;;;;3.27;2.33;;;22.60;63.20;;;;;;5069206;28;20827;-74
2023/05/07 11:23:03;;;;;;;2.70;1.93;;;22.50;62.90;;;;;;5075562;28;20842;-76
2023/05/07 11:25:49;;;;;;;3.40;2.10;;;22.40;65.70;;;;;;5073400;28;20499;-75
2023/05/07 11:28:38;;;;;;;2.43;2.10;;;22.30;65.20;;;;;;5072072;28;20455;-74
2023/05/07 11:31:25;;;;;;;6.20;3.07;;;22.40;69.30;;;;;;5074795;28;20529;-75
2023/05/07 11:34:12;;;;;;;3.70;2.40;;;22.50;65.90;;;;;;5080879;28;20449;-73
2023/05/07 11:37:00;;;;;;;3.97;2.10;;;22.60;66.50;;;;;;5066026;28;20478;-76
2023/05/07 11:39:45;;;;;;;4.33;2.10;;;22.90;68.30;;;;;;5065454;28;20450;-75
2023/05/07 11:42:33;;;;;;;5.23;2.17;;;23.20;63.60;;;;;;5071447;28;20422;-75
2023/05/07 11:45:24;;;;;;;4.20;2.40;;;23.40;63.80;;;;;;5069491;28;20454;-75
2023/05/07 11:48:09;;;;;;;3.73;2.00;;;23.60;60.80;;;;;;5071793;28;20602;-75
2023/05/07 11:51:01;;;;;;;3.70;2.03;;;23.70;54.30;;;;;;5069580;28;20474;-76
2023/05/07 11:53:48;;;;;;;3.53;2.07;;;23.60;54.80;;;;;;5059326;28;20467;-76
2023/05/07 11:56:35;;;;;;;7.07;2.80;;;23.60;57.50;;;;;;5064810;28;20462;-75
2023/05/07 11:59:21;;;;;;;4.30;2.43;;;23.70;60.30;;;;;;5071320;28;20462;-75
2023/05/07 12:02:07;;;;;;;3.60;2.10;;;23.90;58.50;;;;;;5077392;28;20441;-74
2023/05/07 12:04:52;;;;;;;2.73;1.90;;;24.10;52.60;;;;;;5068472;28;21018;-74
2023/05/07 12:07:38;;;;;;;3.40;1.97;;;24.40;60.90;;;;;;5078806;28;20447;-72
2023/05/07 12:10:25;;;;;;;3.67;1.70;;;24.60;44.50;;;;;;5071872;28;20419;-72
2023/05/07 12:13:15;;;;;;;2.90;1.67;;;24.70;44.60;;;;;;5072394;28;20450;-71
2023/05/07 12:16:03;;;;;;;3.20;2.00;;;24.70;48.80;;;;;;5066012;28;21111;-75
2023/05/07 12:18:48;;;;;;;8.70;1.73;;;24.70;42.00;;;;;;5071517;28;20459;-72
2023/05/07 12:21:34;;;;;;;4.03;1.50;;;24.60;39.50;;;;;;5070187;28;20545;-71
2023/05/07 12:24:21;;;;;;;3.10;1.93;;;24.40;42.20;;;;;;5064375;28;20435;-71
2023/05/07 12:27:07;;;;;;;3.33;1.90;;;24.40;44.30;;;;;;5071928;28;20899;-71
2023/05/07 12:29:53;;;;;;;5.10;1.80;;;24.50;44.40;;;;;;5071838;28;20513;-72
2023/05/07 12:32:39;;;;;;;3.40;1.73;;;24.70;48.30;;;;;;5074491;28;20423;-71
2023/05/07 12:35:28;;;;;;;7.63;2.23;;;24.90;45.70;;;;;;5071527;28;20478;-71
2023/05/07 12:38:16;;;;;;;5.97;2.07;;;24.90;37.60;;;;;;5071865;28;20411;-72
2023/05/07 12:41:01;;;;;;;6.93;1.80;;;24.80;39.00;;;;;;5071803;28;20415;-71
2023/05/07 12:43:48;;;;;;;3.90;2.23;;;24.70;42.10;;;;;;5072122;28;20420;-70
2023/05/07 12:46:39;;;;;;;3.77;2.20;;;24.60;44.40;;;;;;5071814;28;20440;-72
2023/05/07 12:49:25;;;;;;;3.83;1.90;;;24.70;39.80;;;;;;5071819;28;20432;-71
2023/05/07 12:52:12;;;;;;;4.10;2.30;;;24.90;46.00;;;;;;5071642;28;20518;-71
2023/05/07 12:54:57;;;;;;;5.27;2.07;;;25.00;40.40;;;;;;5071522;28;20467;-70
2023/05/07 12:57:44;;;;;;;5.10;1.70;;;25.10;36.70;;;;;;5071557;28;20778;-70
2023/05/07 13:00:36;;;;;;;3.80;2.17;;;25.30;40.00;;;;;;5071742;28;20399;-71
2023/05/07 13:03:26;;;;;;;2.27;1.50;;;25.50;38.00;;;;;;5071416;28;20794;-70
2023/05/07 13:06:12;;;;;;;2.77;1.70;;;25.70;40.60;;;;;;5071892;28;20514;-71
2023/05/07 13:08:57;;;;;;;2.80;1.90;;;26.00;34.10;;;;;;5071428;28;20418;-71
2023/05/07 13:11:42;;;;;;;3.37;1.60;;;26.10;31.40;;;;;;5051310;28;20753;-71
2023/05/07 13:14:28;;;;;;;3.07;1.90;;;26.00;29.60;;;;;;5051483;28;20603;-71
2023/05/07 13:17:15;;;;;;;2.50;1.60;;;25.70;29.60;;;;;;5051515;28;20990;-71
2023/05/07 13:20:00;;;;;;;4.17;1.77;;;25.50;31.00;;;;;;5051003;28;20409;-70
2023/05/07 13:22:46;;;;;;;3.93;2.20;;;25.30;32.40;;;;;;5065565;28;20783;-72
2023/05/07 13:25:31;;;;;;;3.40;2.07;;;25.00;33.20;;;;;;5051261;28;21131;-70
2023/05/07 13:28:16;;;;;;;3.30;1.93;;;24.90;37.70;;;;;;5052792;28;20402;-71
2023/05/07 13:31:02;;;;;;;7.37;2.27;;;24.70;38.40;;;;;;5066666;28;20522;-70
2023/05/07 13:33:49;;;;;;;2.40;1.77;;;24.80;40.90;;;;;;5071019;28;20439;-71
2023/05/07 13:36:36;;;;;;;5.70;2.30;;;24.70;40.50;;;;;;5070545;28;20560;-71
2023/05/07 13:39:22;;;;;;;4.10;2.17;;;24.70;40.90;;;;;;5070809;28;20566;-71
2023/05/07 13:42:07;;;;;;;3.80;2.43;;;24.60;39.40;;;;;;5070769;28;20473;-72
2023/05/07 13:44:53;;;;;;;2.80;2.13;;;24.40;39.50;;;;;;5071245;28;20407;-71
2023/05/07 13:47:38;;;;;;;3.50;2.23;;;24.30;41.60;;;;;;5054962;28;20793;-70
2023/05/07 13:50:26;;;;;;;3.10;2.30;;;24.10;39.20;;;;;;5070591;28;20423;-71
2023/05/07 13:53:12;;;;;;;4.30;2.30;;;24.00;40.90;;;;;;5070706;28;20451;-72
2023/05/07 13:55:58;;;;;;;4.50;2.90;;;23.90;43.40;;;;;;5070854;28;20498;-70
2023/05/07 13:58:43;;;;;;;3.60;2.30;;;23.70;43.50;;;;;;5070777;28;20924;-71
2023/05/07 14:01:28;;;;;;;3.17;2.60;;;23.60;45.70;;;;;;5070764;28;20961;-71
2023/05/07 14:04:14;;;;;;;4.00;2.27;;;23.50;48.00;;;;;;5070863;28;20407;-71
2023/05/07 14:07:01;;;;;;;5.33;2.73;;;23.40;51.20;;;;;;5071027;28;20435;-70
2023/05/07 14:09:46;;;;;;;3.53;2.17;;;23.30;52.90;;;;;;5070674;28;20435;-72
2023/05/07 14:12:32;;;;;;;3.80;2.60;;;23.20;53.20;;;;;;5071167;28;20534;-71
2023/05/07 14:15:18;;;;;;;3.30;2.30;;;23.10;51.70;;;;;;5079336;28;20596;-71
2023/05/07 14:18:04;;;;;;;4.20;2.57;;;23.00;53.50;;;;;;5059418;28;20451;-71
2023/05/07 14:20:50;;;;;;;4.03;2.90;;;22.90;56.40;;;;;;5050417;28;20539;-71
2023/05/07 14:23:37;;;;;;;6.83;2.67;;;22.80;56.30;;;;;;5064031;28;20446;-71